< < Back
Terminal Aerodrome Forecast


Current Version              Previous Versions:   1  2  3  4  5  6  7  8  9  

Terminal Aerodrome Forecast

846
FTUS42 KCHS 280530
TAFCHS
TAF
KCHS 280530Z 2806/2906 VRB03KT P6SM FEW020 SCT250
     FM281600 22007KT P6SM SCT035
     FM281800 21008KT P6SM SHRA BKN040
      TEMPO 2820/2824 34015G25KT 4SM TSRA BKN035CB
     FM290000 30006KT P6SM SCT025 BKN060=



Latest METAR

605
SAUS80 KWBC 280600
MTRCHS
METAR KCHS 280456Z 00000KT 10SM FEW010 FEW050 SCT250 24/22 A3000 RMK AO2
SLP159 FU FEW010 T02440222 403220217


USA.gov is the U.S. government's official web portal to all federal, state and local government web resources and services.